createdAt,value
2022-12-18T00:02:42.577Z,38.7
2022-12-18T00:05:42.473Z,38.2
2022-12-18T00:08:42.461Z,37.2
2022-12-18T00:11:42.463Z,38
2022-12-18T00:14:42.471Z,38
2022-12-18T00:17:42.488Z,36.1
2022-12-18T00:20:42.484Z,36.8
2022-12-18T00:23:42.891Z,35.6
2022-12-18T00:26:42.492Z,36.2
2022-12-18T00:29:42.499Z,36.4
2022-12-18T00:32:42.540Z,37.6
2022-12-18T00:35:42.525Z,38.4
2022-12-18T00:38:42.518Z,38.8
2022-12-18T00:41:42.675Z,38.2
2022-12-18T00:44:42.547Z,39.7
2022-12-18T00:47:42.562Z,38.6
2022-12-18T00:50:42.551Z,38
2022-12-18T00:53:42.562Z,37.5
2022-12-18T00:56:48.939Z,37.7
2022-12-18T00:59:42.594Z,36.2
2022-12-18T01:02:42.770Z,37.6
2022-12-18T01:05:42.587Z,37
2022-12-18T01:08:42.599Z,36.2
2022-12-18T01:11:42.613Z,38.3
2022-12-18T01:14:42.612Z,37.7
2022-12-18T01:17:42.665Z,37.4
2022-12-18T01:20:42.627Z,36.1
2022-12-18T01:23:42.846Z,36.2
2022-12-18T01:26:42.647Z,38
2022-12-18T01:29:42.664Z,37
2022-12-18T01:32:42.680Z,36.9
2022-12-18T01:35:42.677Z,37.6
2022-12-18T01:38:42.694Z,37.6
2022-12-18T01:41:42.705Z,37.5
2022-12-18T01:44:42.705Z,36.9
2022-12-18T01:47:42.733Z,34
2022-12-18T01:50:42.720Z,36.2
2022-12-18T01:53:42.732Z,35.5
2022-12-18T01:56:42.742Z,35.5
2022-12-18T01:59:42.755Z,35.7
2022-12-18T02:02:42.920Z,35.9
2022-12-18T02:05:42.769Z,35.7
2022-12-18T02:08:42.784Z,34.8
2022-12-18T02:11:42.791Z,34.5
2022-12-18T02:14:42.927Z,33.4
2022-12-18T02:17:42.840Z,34
2022-12-18T02:20:42.819Z,34.1
2022-12-18T02:23:42.829Z,34
2022-12-18T02:26:42.833Z,32.4
2022-12-18T02:29:42.845Z,32.6
2022-12-18T02:32:42.978Z,32.3
2022-12-18T02:35:42.994Z,30.8
2022-12-18T02:38:42.870Z,31.5
2022-12-18T02:41:42.879Z,32.4
2022-12-18T02:44:42.887Z,31.8
2022-12-18T02:47:42.901Z,31.8
2022-12-18T02:50:43.022Z,31.1
2022-12-18T02:53:42.902Z,29.7
2022-12-18T02:56:42.908Z,30.1
2022-12-18T02:59:42.911Z,30.2
2022-12-18T03:02:43.056Z,30.7
2022-12-18T03:05:42.923Z,29.3
2022-12-18T03:08:43.048Z,30.2
2022-12-18T03:11:42.926Z,29.4
2022-12-18T03:14:42.935Z,30.2
2022-12-18T03:17:42.972Z,30.1
2022-12-18T03:20:42.944Z,29.3
2022-12-18T03:23:43.264Z,29.9
2022-12-18T03:26:43.070Z,29.2
2022-12-18T03:29:42.960Z,29.5
2022-12-18T03:32:42.972Z,28.4
2022-12-18T03:35:42.958Z,29.7
2022-12-18T03:38:42.970Z,28.6
2022-12-18T03:41:42.973Z,29.4
2022-12-18T03:44:43.098Z,29.3
2022-12-18T03:47:42.994Z,30
2022-12-18T03:50:43.143Z,30.5
2022-12-18T03:53:43.301Z,29.6
2022-12-18T03:56:42.998Z,30.3
2022-12-18T03:59:43.001Z,30.4
2022-12-18T04:02:43.260Z,30.4
2022-12-18T04:05:43.011Z,29.7
2022-12-18T04:08:43.013Z,29.6
2022-12-18T04:11:43.027Z,29.6
2022-12-18T04:14:43.030Z,29.5
2022-12-18T04:17:43.049Z,29.3
2022-12-18T04:20:43.151Z,28.7
2022-12-18T04:23:43.346Z,28.4
2022-12-18T04:26:43.042Z,27.7
2022-12-18T04:29:43.048Z,28.5
2022-12-18T04:32:45.549Z,29.1
2022-12-18T04:35:43.051Z,29.6
2022-12-18T04:38:43.174Z,29.5
2022-12-18T04:41:43.060Z,28.6
2022-12-18T04:44:43.067Z,29.2
2022-12-18T04:47:43.081Z,28.1
2022-12-18T04:50:43.074Z,28.4
2022-12-18T04:53:43.343Z,28.5
2022-12-18T04:56:43.208Z,27.7
2022-12-18T04:59:43.088Z,28.1
2022-12-18T05:02:43.211Z,29.1
2022-12-18T05:05:43.101Z,28.7
2022-12-18T05:08:43.109Z,29.4
2022-12-18T05:11:43.114Z,29.8
2022-12-18T05:14:43.244Z,29
2022-12-18T05:17:43.146Z,28.7
2022-12-18T05:20:43.133Z,28.1
2022-12-18T05:23:43.588Z,29.5
2022-12-18T05:26:43.138Z,30
2022-12-18T05:29:43.142Z,29.5
2022-12-18T05:32:43.278Z,29.6
2022-12-18T05:35:43.152Z,29.7
2022-12-18T05:38:43.158Z,28.9
2022-12-18T05:41:43.170Z,29
2022-12-18T05:44:43.172Z,28.9
2022-12-18T05:47:43.188Z,28.9
2022-12-18T05:50:43.302Z,28.8
2022-12-18T05:53:43.514Z,29.5
2022-12-18T05:56:48.460Z,29.2
2022-12-18T05:59:43.196Z,28.3
2022-12-18T06:02:43.365Z,27.9
2022-12-18T06:05:43.205Z,27.8
2022-12-18T06:08:46.352Z,27.7
2022-12-18T06:11:43.213Z,27.9
2022-12-18T06:14:43.215Z,27.5
2022-12-18T06:17:43.237Z,28
2022-12-18T06:20:43.227Z,27.4
2022-12-18T06:23:43.448Z,27.8
2022-12-18T06:26:43.353Z,27
2022-12-18T06:29:43.239Z,27.3
2022-12-18T06:32:43.251Z,28.1
2022-12-18T06:35:43.247Z,27.9
2022-12-18T06:38:43.506Z,28
2022-12-18T06:41:43.252Z,27.4
2022-12-18T06:44:43.377Z,27.8
2022-12-18T06:47:43.272Z,26.6
2022-12-18T06:50:43.268Z,28
2022-12-18T06:53:43.549Z,27.5
2022-12-18T06:56:43.274Z,27.1
2022-12-18T06:59:43.282Z,27.1
2022-12-18T07:02:43.527Z,26.2
2022-12-18T07:05:43.296Z,26.7
2022-12-18T07:08:43.298Z,25.6
2022-12-18T07:11:43.304Z,25.6
2022-12-18T07:14:43.312Z,26.2
2022-12-18T07:17:43.334Z,26.4
2022-12-18T07:20:43.447Z,27
2022-12-18T07:23:43.470Z,25.9
2022-12-18T07:26:43.330Z,26
2022-12-18T07:29:43.338Z,26.5
2022-12-18T07:32:43.366Z,26.2
2022-12-18T07:35:43.346Z,27.8
2022-12-18T07:38:43.495Z,26.8
2022-12-18T07:41:46.654Z,26.4
2022-12-18T07:44:43.350Z,26.3
2022-12-18T07:47:43.364Z,26.6
2022-12-18T07:50:43.362Z,26.8
2022-12-18T07:53:43.625Z,26.2
2022-12-18T07:56:43.492Z,26.5
2022-12-18T07:59:43.371Z,25.9
2022-12-18T08:02:43.476Z,27.3
2022-12-18T08:05:43.375Z,28.1
2022-12-18T08:08:43.385Z,29.7
2022-12-18T08:11:43.392Z,30
2022-12-18T08:14:43.521Z,31
2022-12-18T08:17:43.416Z,30.3
2022-12-18T08:20:43.414Z,30.4
2022-12-18T08:23:43.788Z,29
2022-12-18T08:26:48.373Z,29.4
2022-12-18T08:29:43.420Z,27.4
2022-12-18T08:32:43.557Z,26.2
2022-12-18T08:35:45.947Z,26.6
2022-12-18T08:38:43.454Z,26.5
2022-12-18T08:41:43.444Z,26.2
2022-12-18T08:44:43.442Z,24.8
2022-12-18T08:47:43.462Z,24.5
2022-12-18T08:50:49.397Z,26
2022-12-18T08:53:43.971Z,26.3
2022-12-18T08:56:43.465Z,26.2
2022-12-18T08:59:43.474Z,28.1
2022-12-18T09:02:43.565Z,27.7
2022-12-18T09:05:43.475Z,25.7
2022-12-18T09:08:43.765Z,25.1
2022-12-18T09:11:43.604Z,25.4
2022-12-18T09:14:43.496Z,24.8
2022-12-18T09:17:43.511Z,25.6
2022-12-18T09:20:43.504Z,26.2
2022-12-18T09:23:43.501Z,25.3
2022-12-18T09:26:43.533Z,26.3
2022-12-18T09:29:43.630Z,25.9
2022-12-18T09:32:43.528Z,26.7
2022-12-18T09:35:43.520Z,25.9
2022-12-18T09:38:43.684Z,25.6
2022-12-18T09:41:43.532Z,25.8
2022-12-18T09:44:45.594Z,25.8
2022-12-18T09:47:43.693Z,27.4
2022-12-18T09:50:43.543Z,27.3
2022-12-18T09:53:43.548Z,27.5
2022-12-18T09:56:43.553Z,28.8
2022-12-18T09:59:43.551Z,28.8
2022-12-18T10:02:43.687Z,28.1
2022-12-18T10:05:43.683Z,28.9
2022-12-18T10:08:43.790Z,28.4
2022-12-18T10:11:43.565Z,28.2
2022-12-18T10:14:43.571Z,27.6
2022-12-18T10:17:43.597Z,28.6
2022-12-18T10:20:43.585Z,27.1
2022-12-18T10:23:48.130Z,26.9
2022-12-18T10:26:43.594Z,26.9
2022-12-18T10:29:43.596Z,27.9
2022-12-18T10:32:43.611Z,28
2022-12-18T10:35:43.609Z,29.7
2022-12-18T10:38:43.901Z,35.8
2022-12-18T10:41:43.733Z,29.8
2022-12-18T10:44:43.616Z,29.8
2022-12-18T10:47:43.628Z,29.6
2022-12-18T10:53:43.680Z,28.4
2022-12-18T10:56:43.716Z,29.2
2022-12-18T10:59:43.759Z,29.1
2022-12-18T11:02:43.742Z,30
2022-12-18T11:05:43.651Z,28.8
2022-12-18T11:08:43.974Z,30.9
2022-12-18T11:11:43.656Z,31.2
2022-12-18T11:14:47.006Z,30.7
2022-12-18T11:17:43.803Z,31.3
2022-12-18T11:20:43.671Z,29.7
2022-12-18T11:23:43.675Z,30.4
2022-12-18T11:26:43.677Z,29.3
2022-12-18T11:29:46.683Z,30.3
2022-12-18T11:32:43.700Z,29.5
2022-12-18T11:35:43.810Z,30.2
2022-12-18T11:38:44.028Z,29.5
2022-12-18T11:41:43.698Z,29.2
2022-12-18T11:44:43.701Z,31.3
2022-12-18T11:47:43.720Z,29.3
2022-12-18T11:50:43.711Z,30.5
2022-12-18T11:53:43.832Z,29.5
2022-12-18T11:56:43.726Z,30.3
2022-12-18T11:59:43.736Z,29
2022-12-18T12:02:43.906Z,29.1
2022-12-18T12:05:43.736Z,28.8
2022-12-18T12:08:43.743Z,29.2
2022-12-18T12:11:43.864Z,28.2
2022-12-18T12:14:43.749Z,28.9
2022-12-18T12:17:43.776Z,27.4
2022-12-18T12:20:43.764Z,26.9
2022-12-18T12:23:44.089Z,27.1
2022-12-18T12:26:43.768Z,26
2022-12-18T12:29:43.894Z,27
2022-12-18T12:32:43.792Z,26.6
2022-12-18T12:35:43.785Z,27.2
2022-12-18T12:38:48.328Z,26.6
2022-12-18T12:41:43.785Z,26.6
2022-12-18T12:44:43.792Z,26.5
2022-12-18T12:47:43.932Z,26.2
2022-12-18T12:50:43.807Z,26.3
2022-12-18T12:53:44.132Z,24.8
2022-12-18T12:56:43.815Z,24.6
2022-12-18T12:59:43.810Z,24.7
2022-12-18T13:02:43.828Z,24.2
2022-12-18T13:05:43.942Z,23.1
2022-12-18T13:08:43.829Z,23.5
2022-12-18T13:11:43.827Z,23.5
2022-12-18T13:14:43.832Z,23.3
2022-12-18T13:17:43.855Z,22.9
2022-12-18T13:20:45.603Z,21.8
2022-12-18T13:23:44.266Z,22.3
2022-12-18T13:26:43.839Z,21
2022-12-18T13:29:43.840Z,22.4
2022-12-18T13:32:43.853Z,21.2
2022-12-18T13:35:43.924Z,20.6
2022-12-18T13:38:43.853Z,20.7
2022-12-18T13:41:43.980Z,22.1
2022-12-18T13:44:43.859Z,21.9
2022-12-18T13:47:44.007Z,21.9
2022-12-18T13:50:43.883Z,21.8
2022-12-18T13:53:44.171Z,20
2022-12-18T13:56:43.916Z,21.1
2022-12-18T13:59:44.030Z,20.7
2022-12-18T14:02:44.001Z,20
2022-12-18T14:05:43.931Z,18
2022-12-18T14:08:44.417Z,17
2022-12-18T14:11:43.944Z,16.3
2022-12-18T14:14:43.955Z,17.8
2022-12-18T14:17:44.094Z,18.3
2022-12-18T14:20:46.490Z,19.2
2022-12-18T14:23:44.291Z,17.7
2022-12-18T14:26:43.965Z,19.2
2022-12-18T14:29:43.964Z,17.3
2022-12-18T14:32:43.981Z,18.5
2022-12-18T14:35:44.109Z,18.3
2022-12-18T14:38:43.988Z,18.6
2022-12-18T14:41:43.996Z,19.2
2022-12-18T14:45:12.753Z,19
2022-12-18T14:47:44.030Z,18.7
2022-12-18T14:50:44.008Z,17.7
2022-12-18T14:53:47.668Z,18.2
2022-12-18T14:56:44.018Z,36.8
2022-12-18T14:59:44.024Z,17.3
2022-12-18T15:02:44.172Z,16.3
2022-12-18T15:05:44.031Z,16.7
2022-12-18T15:08:44.034Z,16.3
2022-12-18T15:11:44.159Z,16.9
2022-12-18T15:14:44.048Z,17.5
2022-12-18T15:17:44.077Z,17
2022-12-18T15:20:44.059Z,17.3
2022-12-18T15:23:44.308Z,17.5
2022-12-18T15:26:44.061Z,16.4
2022-12-18T15:29:44.194Z,17
2022-12-18T15:32:44.086Z,16.9
2022-12-18T15:35:47.083Z,16.9
2022-12-18T15:38:44.082Z,15.6
2022-12-18T15:41:44.083Z,16.7
2022-12-18T15:44:44.092Z,15.8
2022-12-18T15:47:44.233Z,16.1
2022-12-18T15:50:44.111Z,16.6
2022-12-18T15:53:44.423Z,17.6
2022-12-18T15:56:44.118Z,16.5
2022-12-18T15:59:44.122Z,16.5
2022-12-18T16:02:44.268Z,17.5
2022-12-18T16:05:44.247Z,17.4
2022-12-18T16:08:44.130Z,16.6
2022-12-18T16:11:44.146Z,17.9
2022-12-18T16:14:44.137Z,16.7
2022-12-18T16:17:44.158Z,17.7
2022-12-18T16:20:44.148Z,17.8
2022-12-18T16:23:44.485Z,17.5
2022-12-18T16:26:44.154Z,17
2022-12-18T16:29:44.163Z,15.7
2022-12-18T16:32:44.176Z,15.7
2022-12-18T16:35:44.175Z,16.2
2022-12-18T16:38:44.178Z,16.4
2022-12-18T16:41:44.307Z,17.7
2022-12-18T16:44:44.184Z,17.2
2022-12-18T16:47:44.200Z,17
2022-12-18T16:50:44.196Z,17.2
2022-12-18T16:53:44.700Z,17.1
2022-12-18T16:56:44.201Z,17.3
2022-12-18T16:59:44.329Z,17.5
2022-12-18T17:02:44.432Z,17.7
2022-12-18T17:05:45.648Z,17.2
2022-12-18T17:08:44.214Z,17.8
2022-12-18T17:11:44.222Z,16.8
2022-12-18T17:14:44.230Z,17.1
2022-12-18T17:17:44.376Z,17
2022-12-18T17:20:44.241Z,16.3
2022-12-18T17:23:44.438Z,16.5
2022-12-18T17:26:44.262Z,16.8
2022-12-18T17:29:47.646Z,16.2
2022-12-18T17:32:44.279Z,15.7
2022-12-18T17:35:44.400Z,16
2022-12-18T17:38:44.276Z,16.2
2022-12-18T17:41:44.281Z,16.1
2022-12-18T17:44:44.357Z,16.4
2022-12-18T17:47:44.304Z,17
2022-12-18T17:50:44.287Z,16.5
2022-12-18T17:53:44.581Z,16.5
2022-12-18T17:56:44.290Z,16.1
2022-12-18T17:59:44.300Z,15.7
2022-12-18T18:02:44.461Z,16.1
2022-12-18T18:05:44.304Z,16.7
2022-12-18T18:08:44.315Z,16
2022-12-18T18:11:44.451Z,16.1
2022-12-18T18:14:44.329Z,16.5
2022-12-18T18:17:44.355Z,16.9
2022-12-18T18:20:44.356Z,16.3
2022-12-18T18:23:44.511Z,16.2
2022-12-18T18:26:44.345Z,16
2022-12-18T18:29:44.466Z,16.6
2022-12-18T18:32:44.358Z,17
2022-12-18T18:35:53.646Z,15.8
2022-12-18T18:38:48.342Z,17.1
2022-12-18T18:41:45.087Z,16.7
2022-12-18T18:44:48.695Z,16.5
2022-12-18T18:47:44.508Z,16.3
2022-12-18T18:50:44.382Z,15.9
2022-12-18T18:53:44.448Z,16.3
2022-12-18T18:57:18.649Z,16.5
2022-12-18T18:59:44.397Z,16.6
2022-12-18T19:02:44.490Z,16.4
2022-12-18T19:05:47.500Z,17
2022-12-18T19:08:44.583Z,16.2
2022-12-18T19:11:44.415Z,16.7
2022-12-18T19:14:44.420Z,17.7
2022-12-18T19:17:44.812Z,17.9
2022-12-18T19:20:44.430Z,17.7
2022-12-18T19:23:44.554Z,17.7
2022-12-18T19:26:44.437Z,17.1
2022-12-18T19:29:44.436Z,17.1
2022-12-18T19:32:44.454Z,16.5
2022-12-18T19:35:44.447Z,16.6
2022-12-18T19:38:44.999Z,16
2022-12-18T19:41:44.582Z,17.4
2022-12-18T19:44:44.460Z,17.4
2022-12-18T19:47:44.491Z,16.3
2022-12-18T19:50:44.468Z,16.1
2022-12-18T19:53:44.474Z,15.7
2022-12-18T19:56:44.480Z,15.7
2022-12-18T19:59:44.604Z,16.3
2022-12-18T20:02:44.613Z,16.5
2022-12-18T20:05:44.492Z,16.2
2022-12-18T20:08:44.498Z,15.8
2022-12-18T20:11:44.503Z,16
2022-12-18T20:14:44.513Z,17
2022-12-18T20:17:44.648Z,16
2022-12-18T20:20:44.530Z,17
2022-12-18T20:23:44.986Z,17
2022-12-18T20:26:44.625Z,16.4
2022-12-18T20:29:44.639Z,15.4
2022-12-18T20:32:44.550Z,15.9
2022-12-18T20:35:44.710Z,15.9
2022-12-18T20:38:44.614Z,16.9
2022-12-18T20:41:44.548Z,17.9
2022-12-18T20:44:44.737Z,16.5
2022-12-18T20:47:44.677Z,16.5
2022-12-18T20:50:44.569Z,17.4
2022-12-18T20:53:45.212Z,16.8
2022-12-18T20:56:44.569Z,18
2022-12-18T20:59:48.042Z,17.4
2022-12-18T21:02:44.710Z,17.1
2022-12-18T21:05:44.582Z,17.3
2022-12-18T21:08:44.591Z,17.8
2022-12-18T21:11:44.707Z,17.7
2022-12-18T21:14:44.597Z,17
2022-12-18T21:17:45.368Z,17.5
2022-12-18T21:20:44.598Z,16.9
2022-12-18T21:23:44.609Z,17.2
2022-12-18T21:26:45.952Z,18
2022-12-18T21:29:44.735Z,17.3
2022-12-18T21:32:44.630Z,17.9
2022-12-18T21:35:44.623Z,17.6
2022-12-18T21:38:44.633Z,17.6
2022-12-18T21:41:44.640Z,17.7
2022-12-18T21:44:44.646Z,18.1
2022-12-18T21:47:44.777Z,17.2
2022-12-18T21:50:44.652Z,16.9
2022-12-18T21:53:44.658Z,17
2022-12-18T21:56:44.660Z,15.7
2022-12-18T21:59:44.664Z,15.7
2022-12-18T22:02:44.826Z,15.8
2022-12-18T22:05:44.793Z,14.7
2022-12-18T22:08:44.675Z,15
2022-12-18T22:11:44.684Z,14.7
2022-12-18T22:14:44.689Z,14.8
2022-12-18T22:17:44.703Z,15.6
2022-12-18T22:20:44.696Z,15.3
2022-12-18T22:23:44.825Z,14.8
2022-12-18T22:26:44.705Z,14.9
2022-12-18T22:29:44.717Z,14.9
2022-12-18T22:32:44.722Z,14.8
2022-12-18T22:35:44.716Z,14.5
2022-12-18T22:38:44.718Z,13.7
2022-12-18T22:41:44.847Z,15.2
2022-12-18T22:44:44.728Z,14.4
2022-12-18T22:47:44.749Z,14.8
2022-12-18T22:50:44.750Z,14.7
2022-12-18T22:53:44.753Z,15
2022-12-18T22:56:44.751Z,14.8
2022-12-18T22:59:44.883Z,14.4
2022-12-18T23:02:45.025Z,14.7
2022-12-18T23:05:44.766Z,15.2
2022-12-18T23:08:44.773Z,14.4
2022-12-18T23:11:44.773Z,14.3
2022-12-18T23:14:44.786Z,14.8
2022-12-18T23:17:44.925Z,14.1
2022-12-18T23:20:44.786Z,15.2
2022-12-18T23:23:44.800Z,14.4
2022-12-18T23:26:44.797Z,14.1
2022-12-18T23:29:45.255Z,14.5
2022-12-18T23:32:44.816Z,13.7
2022-12-18T23:35:44.937Z,14.5
2022-12-18T23:38:44.814Z,14.2
2022-12-18T23:41:44.817Z,13.7
2022-12-18T23:44:44.824Z,14
2022-12-18T23:47:44.839Z,13.7
2022-12-18T23:50:44.831Z,13.1
2022-12-18T23:53:44.962Z,13.5
2022-12-18T23:56:44.841Z,13.6
2022-12-18T23:59:44.845Z,13.1
